sensor_id;sensor_type;location;lat;lon;timestamp;P1;durP1;ratioP1;P2;durP2;ratioP2
14030;SDS011;7090;49.436;8.490;2024-03-23T00:54:00;8.10;;;7.80;;
14030;SDS011;7090;49.436;8.490;2024-03-23T00:56:26;9.70;;;9.23;;
14030;SDS011;7090;49.436;8.490;2024-03-23T00:58:52;9.40;;;8.90;;
14030;SDS011;7090;49.436;8.490;2024-03-23T01:01:17;10.60;;;9.90;;
14030;SDS011;7090;49.436;8.490;2024-03-23T01:03:43;8.30;;;7.97;;
14030;SDS011;7090;49.436;8.490;2024-03-23T01:06:08;7.90;;;7.60;;
14030;SDS011;7090;49.436;8.490;2024-03-23T01:08:34;8.47;;;8.17;;
14030;SDS011;7090;49.436;8.490;2024-03-23T01:11:00;10.00;;;9.27;;
14030;SDS011;7090;49.436;8.490;2024-03-23T01:13:27;10.37;;;9.67;;
14030;SDS011;7090;49.436;8.490;2024-03-23T01:15:53;9.60;;;8.60;;
14030;SDS011;7090;49.436;8.490;2024-03-23T01:18:20;12.83;;;11.00;;
14030;SDS011;7090;49.436;8.490;2024-03-23T01:20:46;8.90;;;8.23;;
14030;SDS011;7090;49.436;8.490;2024-03-23T01:23:12;10.43;;;9.83;;
14030;SDS011;7090;49.436;8.490;2024-03-23T01:25:38;10.97;;;10.10;;
14030;SDS011;7090;49.436;8.490;2024-03-23T01:28:04;9.73;;;8.93;;
14030;SDS011;7090;49.436;8.490;2024-03-23T01:30:31;9.83;;;8.87;;
14030;SDS011;7090;49.436;8.490;2024-03-23T01:32:57;9.00;;;8.50;;
14030;SDS011;7090;49.436;8.490;2024-03-23T01:35:23;9.17;;;8.50;;
14030;SDS011;7090;49.436;8.490;2024-03-23T01:37:48;9.77;;;9.07;;
14030;SDS011;7090;49.436;8.490;2024-03-23T01:40:15;10.03;;;9.43;;
14030;SDS011;7090;49.436;8.490;2024-03-23T01:42:41;8.80;;;7.80;;
14030;SDS011;7090;49.436;8.490;2024-03-23T01:45:07;12.30;;;8.87;;
14030;SDS011;7090;49.436;8.490;2024-03-23T01:47:34;10.63;;;9.10;;
14030;SDS011;7090;49.436;8.490;2024-03-23T01:50:00;6.10;;;5.90;;
14030;SDS011;7090;49.436;8.490;2024-03-23T01:52:27;8.37;;;7.97;;
14030;SDS011;7090;49.436;8.490;2024-03-23T01:54:52;9.67;;;8.80;;
14030;SDS011;7090;49.436;8.490;2024-03-23T01:57:18;9.83;;;9.13;;
14030;SDS011;7090;49.436;8.490;2024-03-23T01:59:45;9.00;;;8.30;;
14030;SDS011;7090;49.436;8.490;2024-03-23T02:02:12;9.90;;;8.97;;
14030;SDS011;7090;49.436;8.490;2024-03-23T02:04:37;18.83;;;9.87;;
14030;SDS011;7090;49.436;8.490;2024-03-23T02:07:03;8.03;;;7.53;;
14030;SDS011;7090;49.436;8.490;2024-03-23T02:09:31;12.63;;;9.67;;
14030;SDS011;7090;49.436;8.490;2024-03-23T02:11:57;9.70;;;8.90;;
14030;SDS011;7090;49.436;8.490;2024-03-23T02:14:23;9.50;;;8.80;;
14030;SDS011;7090;49.436;8.490;2024-03-23T02:16:48;8.07;;;7.43;;
14030;SDS011;7090;49.436;8.490;2024-03-23T02:19:14;10.83;;;8.40;;
14030;SDS011;7090;49.436;8.490;2024-03-23T02:21:39;11.93;;;10.47;;
14030;SDS011;7090;49.436;8.490;2024-03-23T02:24:05;8.60;;;7.73;;
14030;SDS011;7090;49.436;8.490;2024-03-23T02:26:31;8.37;;;7.53;;
14030;SDS011;7090;49.436;8.490;2024-03-23T02:28:56;10.97;;;9.70;;
14030;SDS011;7090;49.436;8.490;2024-03-23T02:31:22;9.57;;;8.57;;
14030;SDS011;7090;49.436;8.490;2024-03-23T02:33:48;9.03;;;8.30;;
14030;SDS011;7090;49.436;8.490;2024-03-23T02:36:13;10.83;;;9.43;;
14030;SDS011;7090;49.436;8.490;2024-03-23T02:38:39;8.93;;;8.13;;
14030;SDS011;7090;49.436;8.490;2024-03-23T02:41:04;8.43;;;7.83;;
14030;SDS011;7090;49.436;8.490;2024-03-23T02:43:30;10.13;;;9.47;;
14030;SDS011;7090;49.436;8.490;2024-03-23T02:45:56;7.43;;;7.13;;
14030;SDS011;7090;49.436;8.490;2024-03-23T02:48:21;9.70;;;8.80;;
14030;SDS011;7090;49.436;8.490;2024-03-23T02:50:47;8.30;;;7.90;;
14030;SDS011;7090;49.436;8.490;2024-03-23T02:53:13;8.03;;;7.53;;
14030;SDS011;7090;49.436;8.490;2024-03-23T02:55:39;8.13;;;7.50;;
14030;SDS011;7090;49.436;8.490;2024-03-23T02:58:04;6.70;;;6.50;;
14030;SDS011;7090;49.436;8.490;2024-03-23T03:00:30;8.67;;;8.17;;
14030;SDS011;7090;49.436;8.490;2024-03-23T03:02:56;7.53;;;7.23;;
14030;SDS011;7090;49.436;8.490;2024-03-23T03:05:21;9.33;;;8.80;;
14030;SDS011;7090;49.436;8.490;2024-03-23T03:07:47;8.30;;;7.90;;
14030;SDS011;7090;49.436;8.490;2024-03-23T03:10:12;10.20;;;9.40;;
14030;SDS011;7090;49.436;8.490;2024-03-23T03:12:38;8.23;;;7.63;;
14030;SDS011;7090;49.436;8.490;2024-03-23T03:15:05;7.77;;;7.37;;
14030;SDS011;7090;49.436;8.490;2024-03-23T03:17:31;7.30;;;7.00;;
14030;SDS011;7090;49.436;8.490;2024-03-23T03:19:56;9.37;;;8.87;;
14030;SDS011;7090;49.436;8.490;2024-03-23T03:22:22;9.53;;;8.63;;
14030;SDS011;7090;49.436;8.490;2024-03-23T03:24:47;7.40;;;7.07;;
14030;SDS011;7090;49.436;8.490;2024-03-23T03:27:13;11.53;;;9.53;;
14030;SDS011;7090;49.436;8.490;2024-03-23T03:29:39;8.53;;;7.80;;
14030;SDS011;7090;49.436;8.490;2024-03-23T03:32:05;9.63;;;8.83;;
14030;SDS011;7090;49.436;8.490;2024-03-23T03:34:31;9.53;;;8.83;;
14030;SDS011;7090;49.436;8.490;2024-03-23T03:36:56;14.00;;;10.00;;
14030;SDS011;7090;49.436;8.490;2024-03-23T03:39:22;10.57;;;9.20;;
14030;SDS011;7090;49.436;8.490;2024-03-23T03:41:49;8.27;;;7.57;;
14030;SDS011;7090;49.436;8.490;2024-03-23T03:44:14;10.07;;;8.67;;
14030;SDS011;7090;49.436;8.490;2024-03-23T03:46:40;10.40;;;9.30;;
14030;SDS011;7090;49.436;8.490;2024-03-23T03:49:05;9.23;;;8.53;;
14030;SDS011;7090;49.436;8.490;2024-03-23T03:51:31;9.50;;;8.77;;
14030;SDS011;7090;49.436;8.490;2024-03-23T03:53:57;9.10;;;8.23;;
14030;SDS011;7090;49.436;8.490;2024-03-23T03:56:22;7.13;;;6.70;;
14030;SDS011;7090;49.436;8.490;2024-03-23T03:58:48;9.13;;;8.33;;
14030;SDS011;7090;49.436;8.490;2024-03-23T04:01:13;7.40;;;6.70;;
14030;SDS011;7090;49.436;8.490;2024-03-23T04:03:39;9.03;;;8.23;;
14030;SDS011;7090;49.436;8.490;2024-03-23T04:06:08;9.83;;;8.93;;
14030;SDS011;7090;49.436;8.490;2024-03-23T04:08:37;6.40;;;6.10;;
14030;SDS011;7090;49.436;8.490;2024-03-23T04:11:03;5.67;;;5.47;;
14030;SDS011;7090;49.436;8.490;2024-03-23T04:13:28;9.13;;;8.43;;
14030;SDS011;7090;49.436;8.490;2024-03-23T04:15:54;14.27;;;8.37;;
14030;SDS011;7090;49.436;8.490;2024-03-23T04:18:21;9.33;;;8.63;;
14030;SDS011;7090;49.436;8.490;2024-03-23T04:20:47;13.87;;;9.27;;
14030;SDS011;7090;49.436;8.490;2024-03-23T04:23:13;10.90;;;8.37;;
14030;SDS011;7090;49.436;8.490;2024-03-23T04:25:39;8.13;;;7.53;;
14030;SDS011;7090;49.436;8.490;2024-03-23T04:28:04;10.33;;;9.13;;
14030;SDS011;7090;49.436;8.490;2024-03-23T04:30:30;9.47;;;8.63;;
14030;SDS011;7090;49.436;8.490;2024-03-23T04:32:56;7.13;;;6.73;;
14030;SDS011;7090;49.436;8.490;2024-03-23T04:35:23;9.13;;;8.27;;
14030;SDS011;7090;49.436;8.490;2024-03-23T04:37:52;7.67;;;7.17;;
14030;SDS011;7090;49.436;8.490;2024-03-23T04:40:18;10.60;;;8.30;;
14030;SDS011;7090;49.436;8.490;2024-03-23T04:42:44;9.60;;;8.60;;
14030;SDS011;7090;49.436;8.490;2024-03-23T04:45:09;8.27;;;7.73;;
14030;SDS011;7090;49.436;8.490;2024-03-23T04:47:35;6.90;;;6.37;;
14030;SDS011;7090;49.436;8.490;2024-03-23T04:50:03;6.37;;;6.07;;
14030;SDS011;7090;49.436;8.490;2024-03-23T04:52:29;8.90;;;8.13;;
14030;SDS011;7090;49.436;8.490;2024-03-23T04:54:55;6.97;;;6.47;;
14030;SDS011;7090;49.436;8.490;2024-03-23T04:57:20;7.23;;;6.83;;
14030;SDS011;7090;49.436;8.490;2024-03-23T04:59:46;8.53;;;7.73;;
14030;SDS011;7090;49.436;8.490;2024-03-23T05:02:12;7.00;;;6.43;;
14030;SDS011;7090;49.436;8.490;2024-03-23T05:04:38;5.47;;;5.17;;
14030;SDS011;7090;49.436;8.490;2024-03-23T05:07:05;9.67;;;8.07;;
14030;SDS011;7090;49.436;8.490;2024-03-23T05:09:31;7.20;;;6.50;;
14030;SDS011;7090;49.436;8.490;2024-03-23T05:11:58;5.97;;;5.57;;
14030;SDS011;7090;49.436;8.490;2024-03-23T05:14:26;5.90;;;5.60;;
14030;SDS011;7090;49.436;8.490;2024-03-23T05:16:52;6.03;;;5.63;;
14030;SDS011;7090;49.436;8.490;2024-03-23T05:19:18;6.37;;;5.57;;
14030;SDS011;7090;49.436;8.490;2024-03-23T05:21:43;6.17;;;5.60;;
14030;SDS011;7090;49.436;8.490;2024-03-23T05:24:09;5.60;;;5.30;;
14030;SDS011;7090;49.436;8.490;2024-03-23T05:26:35;5.13;;;4.93;;
14030;SDS011;7090;49.436;8.490;2024-03-23T05:29:01;5.30;;;4.90;;
14030;SDS011;7090;49.436;8.490;2024-03-23T05:31:28;5.20;;;5.00;;
14030;SDS011;7090;49.436;8.490;2024-03-23T05:33:56;5.80;;;5.50;;
14030;SDS011;7090;49.436;8.490;2024-03-23T05:36:22;5.57;;;5.37;;
14030;SDS011;7090;49.436;8.490;2024-03-23T05:38:49;5.70;;;5.50;;
14030;SDS011;7090;49.436;8.490;2024-03-23T05:41:15;5.40;;;5.20;;
14030;SDS011;7090;49.436;8.490;2024-03-23T05:43:40;6.30;;;5.80;;
14030;SDS011;7090;49.436;8.490;2024-03-23T05:46:06;5.43;;;5.23;;
14030;SDS011;7090;49.436;8.490;2024-03-23T05:48:33;5.50;;;5.20;;
14030;SDS011;7090;49.436;8.490;2024-03-23T05:50:59;5.20;;;5.00;;
14030;SDS011;7090;49.436;8.490;2024-03-23T05:53:25;5.90;;;5.60;;
14030;SDS011;7090;49.436;8.490;2024-03-23T05:55:51;5.60;;;5.40;;
14030;SDS011;7090;49.436;8.490;2024-03-23T05:58:24;5.13;;;4.93;;
14030;SDS011;7090;49.436;8.490;2024-03-23T06:00:56;5.53;;;5.33;;
14030;SDS011;7090;49.436;8.490;2024-03-23T06:03:23;5.90;;;5.63;;
14030;SDS011;7090;49.436;8.490;2024-03-23T06:05:49;6.00;;;5.70;;
14030;SDS011;7090;49.436;8.490;2024-03-23T06:08:14;5.57;;;5.37;;
14030;SDS011;7090;49.436;8.490;2024-03-23T06:10:40;5.40;;;5.20;;
14030;SDS011;7090;49.436;8.490;2024-03-23T06:13:05;5.50;;;5.30;;
14030;SDS011;7090;49.436;8.490;2024-03-23T06:15:31;5.90;;;5.43;;
14030;SDS011;7090;49.436;8.490;2024-03-23T06:17:56;5.10;;;4.90;;
14030;SDS011;7090;49.436;8.490;2024-03-23T06:20:23;5.43;;;5.23;;
14030;SDS011;7090;49.436;8.490;2024-03-23T06:22:49;5.53;;;5.33;;
14030;SDS011;7090;49.436;8.490;2024-03-23T06:25:14;5.43;;;5.23;;
14030;SDS011;7090;49.436;8.490;2024-03-23T06:27:40;5.47;;;5.27;;
14030;SDS011;7090;49.436;8.490;2024-03-23T06:30:06;5.30;;;5.10;;
14030;SDS011;7090;49.436;8.490;2024-03-23T06:32:32;5.30;;;5.10;;
14030;SDS011;7090;49.436;8.490;2024-03-23T06:34:57;5.20;;;5.00;;
14030;SDS011;7090;49.436;8.490;2024-03-23T06:37:23;5.40;;;5.20;;
14030;SDS011;7090;49.436;8.490;2024-03-23T06:39:48;4.90;;;4.70;;
14030;SDS011;7090;49.436;8.490;2024-03-23T06:42:14;5.20;;;5.00;;
14030;SDS011;7090;49.436;8.490;2024-03-23T06:44:40;4.80;;;4.60;;
14030;SDS011;7090;49.436;8.490;2024-03-23T06:47:05;4.70;;;4.60;;
14030;SDS011;7090;49.436;8.490;2024-03-23T06:49:31;4.70;;;4.60;;
14030;SDS011;7090;49.436;8.490;2024-03-23T06:51:57;4.67;;;4.57;;
14030;SDS011;7090;49.436;8.490;2024-03-23T06:54:24;5.30;;;5.10;;
14030;SDS011;7090;49.436;8.490;2024-03-23T06:56:49;4.67;;;4.57;;
14030;SDS011;7090;49.436;8.490;2024-03-23T06:59:15;5.20;;;5.00;;
14030;SDS011;7090;49.436;8.490;2024-03-23T07:01:41;4.80;;;4.70;;
14030;SDS011;7090;49.436;8.490;2024-03-23T07:04:07;5.47;;;5.27;;
14030;SDS011;7090;49.436;8.490;2024-03-23T07:06:33;5.40;;;5.20;;
14030;SDS011;7090;49.436;8.490;2024-03-23T07:08:58;5.50;;;5.30;;
14030;SDS011;7090;49.436;8.490;2024-03-23T07:11:24;5.70;;;5.40;;
14030;SDS011;7090;49.436;8.490;2024-03-23T07:13:50;5.93;;;5.63;;
14030;SDS011;7090;49.436;8.490;2024-03-23T07:16:17;5.20;;;5.00;;
14030;SDS011;7090;49.436;8.490;2024-03-23T07:18:43;5.00;;;4.83;;
14030;SDS011;7090;49.436;8.490;2024-03-23T07:21:08;5.63;;;5.23;;
14030;SDS011;7090;49.436;8.490;2024-03-23T07:23:34;5.30;;;5.10;;
14030;SDS011;7090;49.436;8.490;2024-03-23T07:26:03;5.37;;;5.17;;
14030;SDS011;7090;49.436;8.490;2024-03-23T07:28:30;5.50;;;5.30;;
14030;SDS011;7090;49.436;8.490;2024-03-23T07:31:06;6.03;;;5.83;;
14030;SDS011;7090;49.436;8.490;2024-03-23T07:33:45;5.90;;;5.70;;
14030;SDS011;7090;49.436;8.490;2024-03-23T07:36:12;5.63;;;5.40;;
14030;SDS011;7090;49.436;8.490;2024-03-23T07:38:41;5.60;;;5.40;;
14030;SDS011;7090;49.436;8.490;2024-03-23T07:41:10;5.50;;;5.30;;
14030;SDS011;7090;49.436;8.490;2024-03-23T07:43:37;9.00;;;5.70;;
14030;SDS011;7090;49.436;8.490;2024-03-23T07:46:03;5.50;;;5.30;;
14030;SDS011;7090;49.436;8.490;2024-03-23T07:48:30;6.40;;;6.00;;
14030;SDS011;7090;49.436;8.490;2024-03-23T07:53:29;6.00;;;5.80;;
14030;SDS011;7090;49.436;8.490;2024-03-23T07:55:56;6.57;;;6.00;;
14030;SDS011;7090;49.436;8.490;2024-03-23T07:58:23;5.70;;;5.50;;
14030;SDS011;7090;49.436;8.490;2024-03-23T08:00:48;6.57;;;6.23;;
14030;SDS011;7090;49.436;8.490;2024-03-23T08:03:14;6.33;;;6.10;;
14030;SDS011;7090;49.436;8.490;2024-03-23T08:05:40;6.50;;;6.30;;
14030;SDS011;7090;49.436;8.490;2024-03-23T08:08:05;7.10;;;6.70;;
14030;SDS011;7090;49.436;8.490;2024-03-23T08:10:31;7.33;;;6.93;;
14030;SDS011;7090;49.436;8.490;2024-03-23T08:12:56;6.80;;;6.50;;
14030;SDS011;7090;49.436;8.490;2024-03-23T08:15:22;7.17;;;6.87;;
14030;SDS011;7090;49.436;8.490;2024-03-23T08:17:48;7.70;;;7.17;;
14030;SDS011;7090;49.436;8.490;2024-03-23T08:20:15;7.37;;;7.07;;
14030;SDS011;7090;49.436;8.490;2024-03-23T08:22:40;7.63;;;7.20;;
14030;SDS011;7090;49.436;8.490;2024-03-23T08:25:06;10.60;;;8.50;;
14030;SDS011;7090;49.436;8.490;2024-03-23T08:27:31;7.40;;;7.10;;
14030;SDS011;7090;49.436;8.490;2024-03-23T08:29:58;7.00;;;6.68;;
14030;SDS011;7090;49.436;8.490;2024-03-23T08:32:23;7.50;;;7.00;;
14030;SDS011;7090;49.436;8.490;2024-03-23T08:34:49;7.23;;;6.83;;
14030;SDS011;7090;49.436;8.490;2024-03-23T08:37:14;6.80;;;6.60;;
14030;SDS011;7090;49.436;8.490;2024-03-23T08:39:42;7.75;;;7.35;;
14030;SDS011;7090;49.436;8.490;2024-03-23T08:42:08;6.80;;;6.60;;
14030;SDS011;7090;49.436;8.490;2024-03-23T08:44:34;7.50;;;7.20;;
14030;SDS011;7090;49.436;8.490;2024-03-23T08:47:00;8.70;;;8.30;;
14030;SDS011;7090;49.436;8.490;2024-03-23T08:49:26;7.70;;;7.40;;
14030;SDS011;7090;49.436;8.490;2024-03-23T08:51:52;8.10;;;7.70;;
14030;SDS011;7090;49.436;8.490;2024-03-23T08:54:19;7.70;;;7.40;;
14030;SDS011;7090;49.436;8.490;2024-03-23T08:56:45;8.10;;;7.80;;
14030;SDS011;7090;49.436;8.490;2024-03-23T08:59:11;8.07;;;7.67;;
14030;SDS011;7090;49.436;8.490;2024-03-23T09:01:36;8.03;;;7.73;;
14030;SDS011;7090;49.436;8.490;2024-03-23T09:04:03;8.00;;;7.70;;
14030;SDS011;7090;49.436;8.490;2024-03-23T09:06:29;8.18;;;7.78;;
14030;SDS011;7090;49.436;8.490;2024-03-23T09:08:54;7.70;;;7.40;;
14030;SDS011;7090;49.436;8.490;2024-03-23T09:11:20;7.60;;;7.30;;
14030;SDS011;7090;49.436;8.490;2024-03-23T09:13:45;8.70;;;8.30;;
14030;SDS011;7090;49.436;8.490;2024-03-23T09:16:11;8.57;;;8.27;;
14030;SDS011;7090;49.436;8.490;2024-03-23T09:18:37;8.40;;;8.10;;
14030;SDS011;7090;49.436;8.490;2024-03-23T09:21:03;8.30;;;8.00;;
14030;SDS011;7090;49.436;8.490;2024-03-23T09:23:29;7.60;;;7.30;;
14030;SDS011;7090;49.436;8.490;2024-03-23T09:25:55;8.30;;;8.00;;
14030;SDS011;7090;49.436;8.490;2024-03-23T09:28:20;8.13;;;7.83;;
14030;SDS011;7090;49.436;8.490;2024-03-23T09:30:47;9.30;;;8.80;;
14030;SDS011;7090;49.436;8.490;2024-03-23T09:33:12;9.40;;;8.90;;
14030;SDS011;7090;49.436;8.490;2024-03-23T09:35:39;8.70;;;8.27;;
14030;SDS011;7090;49.436;8.490;2024-03-23T09:38:05;8.00;;;7.70;;
14030;SDS011;7090;49.436;8.490;2024-03-23T09:40:34;8.33;;;8.00;;
14030;SDS011;7090;49.436;8.490;2024-03-23T09:43:06;8.00;;;7.70;;
14030;SDS011;7090;49.436;8.490;2024-03-23T09:45:32;11.40;;;10.83;;
14030;SDS011;7090;49.436;8.490;2024-03-23T09:48:01;8.53;;;8.10;;
14030;SDS011;7090;49.436;8.490;2024-03-23T09:50:28;7.80;;;7.50;;
14030;SDS011;7090;49.436;8.490;2024-03-23T09:52:54;8.57;;;8.17;;
14030;SDS011;7090;49.436;8.490;2024-03-23T09:55:19;8.37;;;8.07;;
14030;SDS011;7090;49.436;8.490;2024-03-23T09:57:45;9.30;;;8.43;;
14030;SDS011;7090;49.436;8.490;2024-03-23T10:00:11;8.27;;;7.97;;
14030;SDS011;7090;49.436;8.490;2024-03-23T10:02:37;8.63;;;8.13;;
14030;SDS011;7090;49.436;8.490;2024-03-23T10:05:03;8.30;;;8.00;;
14030;SDS011;7090;49.436;8.490;2024-03-23T10:07:29;8.33;;;8.03;;
14030;SDS011;7090;49.436;8.490;2024-03-23T10:09:54;9.33;;;8.83;;
14030;SDS011;7090;49.436;8.490;2024-03-23T10:12:21;9.10;;;8.70;;
14030;SDS011;7090;49.436;8.490;2024-03-23T10:14:48;10.32;;;9.52;;
14030;SDS011;7090;49.436;8.490;2024-03-23T10:17:18;8.70;;;8.30;;
14030;SDS011;7090;49.436;8.490;2024-03-23T10:19:47;8.80;;;8.40;;
14030;SDS011;7090;49.436;8.490;2024-03-23T10:22:18;8.97;;;8.57;;
14030;SDS011;7090;49.436;8.490;2024-03-23T10:24:45;8.40;;;8.10;;
14030;SDS011;7090;49.436;8.490;2024-03-23T10:27:20;9.43;;;8.80;;
14030;SDS011;7090;49.436;8.490;2024-03-23T10:29:47;9.33;;;8.83;;
14030;SDS011;7090;49.436;8.490;2024-03-23T10:32:14;10.10;;;9.50;;
14030;SDS011;7090;49.436;8.490;2024-03-23T10:34:40;9.10;;;8.70;;
14030;SDS011;7090;49.436;8.490;2024-03-23T10:37:06;9.67;;;9.03;;
14030;SDS011;7090;49.436;8.490;2024-03-23T10:39:39;9.60;;;8.90;;
14030;SDS011;7090;49.436;8.490;2024-03-23T10:42:06;10.13;;;9.50;;
14030;SDS011;7090;49.436;8.490;2024-03-23T10:44:33;9.70;;;9.00;;
14030;SDS011;7090;49.436;8.490;2024-03-23T10:46:59;9.97;;;9.27;;
14030;SDS011;7090;49.436;8.490;2024-03-23T10:49:28;10.40;;;9.40;;
14030;SDS011;7090;49.436;8.490;2024-03-23T10:51:58;10.40;;;10.00;;
14030;SDS011;7090;49.436;8.490;2024-03-23T10:54:25;10.87;;;10.27;;
14030;SDS011;7090;49.436;8.490;2024-03-23T10:56:56;10.00;;;9.37;;
14030;SDS011;7090;49.436;8.490;2024-03-23T10:59:29;9.83;;;9.23;;
14030;SDS011;7090;49.436;8.490;2024-03-23T11:01:56;9.50;;;9.10;;
14030;SDS011;7090;49.436;8.490;2024-03-23T11:04:32;10.17;;;9.47;;
14030;SDS011;7090;49.436;8.490;2024-03-23T11:07:46;10.57;;;9.93;;
14030;SDS011;7090;49.436;8.490;2024-03-23T11:09:59;10.27;;;9.33;;
14030;SDS011;7090;49.436;8.490;2024-03-23T11:12:26;10.53;;;9.70;;
14030;SDS011;7090;49.436;8.490;2024-03-23T11:14:54;11.00;;;10.30;;
14030;SDS011;7090;49.436;8.490;2024-03-23T11:17:20;9.10;;;8.70;;
14030;SDS011;7090;49.436;8.490;2024-03-23T11:19:52;9.63;;;9.23;;
14030;SDS011;7090;49.436;8.490;2024-03-23T11:27:46;9.98;;;9.55;;
14030;SDS011;7090;49.436;8.490;2024-03-23T11:30:22;9.45;;;8.98;;
14030;SDS011;7090;49.436;8.490;2024-03-23T11:32:49;9.43;;;9.02;;
14030;SDS011;7090;49.436;8.490;2024-03-23T11:35:35;10.05;;;9.63;;
14030;SDS011;7090;49.436;8.490;2024-03-23T11:38:19;8.98;;;8.57;;
14030;SDS011;7090;49.436;8.490;2024-03-23T11:40:45;8.88;;;8.48;;
14030;SDS011;7090;49.436;8.490;2024-03-23T11:43:16;8.40;;;8.10;;
14030;SDS011;7090;49.436;8.490;2024-03-23T11:45:52;8.90;;;8.40;;
14030;SDS011;7090;49.436;8.490;2024-03-23T11:48:19;8.15;;;7.65;;
14030;SDS011;7090;49.436;8.490;2024-03-23T11:50:49;7.73;;;7.40;;
14030;SDS011;7090;49.436;8.490;2024-03-23T11:53:16;7.45;;;7.05;;
14030;SDS011;7090;49.436;8.490;2024-03-23T11:55:53;7.43;;;7.03;;
14030;SDS011;7090;49.436;8.490;2024-03-23T11:58:19;7.07;;;6.77;;
14030;SDS011;7090;49.436;8.490;2024-03-23T12:00:52;7.17;;;6.77;;
14030;SDS011;7090;49.436;8.490;2024-03-23T12:03:18;6.60;;;6.30;;
14030;SDS011;7090;49.436;8.490;2024-03-23T12:05:50;6.60;;;6.40;;
14030;SDS011;7090;49.436;8.490;2024-03-23T12:08:20;6.90;;;6.60;;
14030;SDS011;7090;49.436;8.490;2024-03-23T12:10:51;6.60;;;6.40;;
14030;SDS011;7090;49.436;8.490;2024-03-23T12:13:19;6.77;;;6.47;;
14030;SDS011;7090;49.436;8.490;2024-03-23T12:15:50;6.80;;;6.60;;
14030;SDS011;7090;49.436;8.490;2024-03-23T12:18:16;7.63;;;7.23;;
14030;SDS011;7090;49.436;8.490;2024-03-23T12:20:43;8.27;;;7.88;;
14030;SDS011;7090;49.436;8.490;2024-03-23T12:23:09;7.87;;;7.37;;
14030;SDS011;7090;49.436;8.490;2024-03-23T12:25:36;7.97;;;7.67;;
14030;SDS011;7090;49.436;8.490;2024-03-23T12:28:03;9.30;;;8.30;;
14030;SDS011;7090;49.436;8.490;2024-03-23T12:30:31;8.40;;;7.90;;
14030;SDS011;7090;49.436;8.490;2024-03-23T12:32:57;7.60;;;7.30;;
14030;SDS011;7090;49.436;8.490;2024-03-23T12:35:23;8.10;;;7.70;;
14030;SDS011;7090;49.436;8.490;2024-03-23T12:37:48;9.50;;;9.10;;
14030;SDS011;7090;49.436;8.490;2024-03-23T12:40:14;8.80;;;8.40;;
14030;SDS011;7090;49.436;8.490;2024-03-23T12:42:40;9.20;;;8.80;;
14030;SDS011;7090;49.436;8.490;2024-03-23T12:45:05;8.73;;;8.33;;
14030;SDS011;7090;49.436;8.490;2024-03-23T12:47:31;7.90;;;7.60;;
14030;SDS011;7090;49.436;8.490;2024-03-23T12:49:57;8.83;;;8.43;;
14030;SDS011;7090;49.436;8.490;2024-03-23T12:52:22;9.10;;;8.50;;
14030;SDS011;7090;49.436;8.490;2024-03-23T12:54:53;8.97;;;8.30;;
14030;SDS011;7090;49.436;8.490;2024-03-23T12:57:21;8.47;;;7.97;;
14030;SDS011;7090;49.436;8.490;2024-03-23T12:59:47;8.30;;;7.80;;
14030;SDS011;7090;49.436;8.490;2024-03-23T13:02:15;9.23;;;6.70;;
14030;SDS011;7090;49.436;8.490;2024-03-23T13:04:41;8.73;;;8.10;;
14030;SDS011;7090;49.436;8.490;2024-03-23T13:07:07;10.60;;;10.10;;
14030;SDS011;7090;49.436;8.490;2024-03-23T13:09:33;16.00;;;15.30;;
14030;SDS011;7090;49.436;8.490;2024-03-23T13:11:58;16.70;;;15.90;;
14030;SDS011;7090;49.436;8.490;2024-03-23T13:14:24;15.20;;;14.40;;
14030;SDS011;7090;49.436;8.490;2024-03-23T13:16:49;16.93;;;16.03;;
14030;SDS011;7090;49.436;8.490;2024-03-23T13:19:15;15.50;;;14.80;;
14030;SDS011;7090;49.436;8.490;2024-03-23T13:21:40;13.53;;;12.90;;
14030;SDS011;7090;49.436;8.490;2024-03-23T13:24:06;12.93;;;12.33;;
14030;SDS011;7090;49.436;8.490;2024-03-23T13:26:32;10.57;;;10.10;;
14030;SDS011;7090;49.436;8.490;2024-03-23T13:28:59;8.70;;;8.40;;
14030;SDS011;7090;49.436;8.490;2024-03-23T13:31:25;7.07;;;6.77;;
14030;SDS011;7090;49.436;8.490;2024-03-23T13:33:50;6.13;;;5.93;;
14030;SDS011;7090;49.436;8.490;2024-03-23T13:36:16;6.30;;;6.00;;
14030;SDS011;7090;49.436;8.490;2024-03-23T13:38:41;6.03;;;5.83;;
14030;SDS011;7090;49.436;8.490;2024-03-23T13:41:07;5.80;;;5.60;;
14030;SDS011;7090;49.436;8.490;2024-03-23T13:43:33;6.60;;;6.30;;
14030;SDS011;7090;49.436;8.490;2024-03-23T13:45:59;6.40;;;6.20;;
14030;SDS011;7090;49.436;8.490;2024-03-23T13:48:25;7.00;;;6.70;;
14030;SDS011;7090;49.436;8.490;2024-03-23T13:51:02;7.07;;;6.77;;
14030;SDS011;7090;49.436;8.490;2024-03-23T13:53:29;6.93;;;6.63;;
14030;SDS011;7090;49.436;8.490;2024-03-23T13:55:55;8.17;;;7.70;;
14030;SDS011;7090;49.436;8.490;2024-03-23T13:58:20;7.70;;;7.30;;
14030;SDS011;7090;49.436;8.490;2024-03-23T14:00:46;8.40;;;7.90;;
14030;SDS011;7090;49.436;8.490;2024-03-23T14:03:12;7.40;;;7.10;;
14030;SDS011;7090;49.436;8.490;2024-03-23T14:05:38;7.53;;;7.23;;
14030;SDS011;7090;49.436;8.490;2024-03-23T14:08:05;9.47;;;8.17;;
14030;SDS011;7090;49.436;8.490;2024-03-23T14:10:31;7.87;;;7.57;;
14030;SDS011;7090;49.436;8.490;2024-03-23T14:12:57;7.57;;;7.17;;
14030;SDS011;7090;49.436;8.490;2024-03-23T14:15:24;7.37;;;6.97;;
14030;SDS011;7090;49.436;8.490;2024-03-23T14:17:51;7.23;;;6.87;;
14030;SDS011;7090;49.436;8.490;2024-03-23T14:20:16;8.00;;;7.40;;
14030;SDS011;7090;49.436;8.490;2024-03-23T14:22:42;8.00;;;7.57;;
14030;SDS011;7090;49.436;8.490;2024-03-23T14:25:08;8.13;;;7.53;;
14030;SDS011;7090;49.436;8.490;2024-03-23T14:27:34;7.90;;;7.33;;
14030;SDS011;7090;49.436;8.490;2024-03-23T14:30:02;7.70;;;7.40;;
14030;SDS011;7090;49.436;8.490;2024-03-23T14:32:29;8.60;;;8.00;;
14030;SDS011;7090;49.436;8.490;2024-03-23T14:34:58;7.90;;;7.50;;
14030;SDS011;7090;49.436;8.490;2024-03-23T14:37:27;8.13;;;7.73;;
14030;SDS011;7090;49.436;8.490;2024-03-23T14:39:55;8.50;;;7.90;;
14030;SDS011;7090;49.436;8.490;2024-03-23T14:42:21;8.30;;;8.00;;
14030;SDS011;7090;49.436;8.490;2024-03-23T14:44:47;8.83;;;8.43;;
14030;SDS011;7090;49.436;8.490;2024-03-23T14:47:13;8.70;;;8.30;;
14030;SDS011;7090;49.436;8.490;2024-03-23T14:49:38;9.93;;;8.60;;
14030;SDS011;7090;49.436;8.490;2024-03-23T14:52:04;9.17;;;8.47;;
14030;SDS011;7090;49.436;8.490;2024-03-23T14:54:29;8.70;;;8.40;;
14030;SDS011;7090;49.436;8.490;2024-03-23T14:56:55;7.90;;;7.60;;
14030;SDS011;7090;49.436;8.490;2024-03-23T14:59:23;8.30;;;8.00;;
14030;SDS011;7090;49.436;8.490;2024-03-23T15:01:49;8.10;;;7.80;;
14030;SDS011;7090;49.436;8.490;2024-03-23T15:04:14;8.00;;;7.70;;
14030;SDS011;7090;49.436;8.490;2024-03-23T15:06:40;8.20;;;7.70;;
14030;SDS011;7090;49.436;8.490;2024-03-23T15:09:07;7.27;;;6.97;;
14030;SDS011;7090;49.436;8.490;2024-03-23T15:11:36;8.03;;;7.50;;
14030;SDS011;7090;49.436;8.490;2024-03-23T15:14:01;7.70;;;7.17;;
14030;SDS011;7090;49.436;8.490;2024-03-23T15:16:27;7.93;;;7.43;;
14030;SDS011;7090;49.436;8.490;2024-03-23T15:18:53;7.82;;;7.53;;
14030;SDS011;7090;49.436;8.490;2024-03-23T15:21:18;7.60;;;7.30;;
14030;SDS011;7090;49.436;8.490;2024-03-23T15:23:47;7.75;;;7.45;;
14030;SDS011;7090;49.436;8.490;2024-03-23T15:26:13;7.40;;;7.10;;
14030;SDS011;7090;49.436;8.490;2024-03-23T15:28:38;7.00;;;6.80;;
14030;SDS011;7090;49.436;8.490;2024-03-23T15:31:26;7.90;;;7.60;;
14030;SDS011;7090;49.436;8.490;2024-03-23T15:33:52;8.13;;;7.83;;
14030;SDS011;7090;49.436;8.490;2024-03-23T15:36:18;8.77;;;8.07;;
14030;SDS011;7090;49.436;8.490;2024-03-23T15:38:44;8.50;;;8.10;;
14030;SDS011;7090;49.436;8.490;2024-03-23T15:41:10;8.43;;;8.03;;
14030;SDS011;7090;49.436;8.490;2024-03-23T15:43:35;7.87;;;7.57;;
14030;SDS011;7090;49.436;8.490;2024-03-23T15:46:03;8.10;;;7.60;;
14030;SDS011;7090;49.436;8.490;2024-03-23T15:48:30;7.03;;;6.73;;
14030;SDS011;7090;49.436;8.490;2024-03-23T15:50:58;6.90;;;6.40;;
14030;SDS011;7090;49.436;8.490;2024-03-23T15:53:25;5.77;;;5.40;;
14030;SDS011;7090;49.436;8.490;2024-03-23T15:58:20;5.60;;;5.30;;